sensor_id;sensor_type;location;lat;lon;timestamp;P1;durP1;ratioP1;P2;durP2;ratioP2
21754;SDS011;11039;50.028;19.938;2023-05-07T00:00:10;8.35;;;7.55;;
21754;SDS011;11039;50.028;19.938;2023-05-07T00:02:36;8.45;;;7.60;;
21754;SDS011;11039;50.028;19.938;2023-05-07T00:05:03;8.50;;;7.70;;
21754;SDS011;11039;50.028;19.938;2023-05-07T00:07:29;8.50;;;7.63;;
21754;SDS011;11039;50.028;19.938;2023-05-07T00:09:55;8.48;;;7.68;;
21754;SDS011;11039;50.028;19.938;2023-05-07T00:12:21;8.40;;;7.53;;
21754;SDS011;11039;50.028;19.938;2023-05-07T00:14:47;8.40;;;7.60;;
21754;SDS011;11039;50.028;19.938;2023-05-07T00:17:13;8.63;;;7.72;;
21754;SDS011;11039;50.028;19.938;2023-05-07T00:19:39;7.97;;;7.18;;
21754;SDS011;11039;50.028;19.938;2023-05-07T00:22:05;9.45;;;7.40;;
21754;SDS011;11039;50.028;19.938;2023-05-07T00:24:31;7.55;;;6.82;;
21754;SDS011;11039;50.028;19.938;2023-05-07T00:26:57;8.20;;;7.40;;
21754;SDS011;11039;50.028;19.938;2023-05-07T00:29:23;8.65;;;7.60;;
21754;SDS011;11039;50.028;19.938;2023-05-07T00:31:49;8.85;;;7.25;;
21754;SDS011;11039;50.028;19.938;2023-05-07T00:34:16;8.00;;;7.20;;
21754;SDS011;11039;50.028;19.938;2023-05-07T00:36:42;8.55;;;7.47;;
21754;SDS011;11039;50.028;19.938;2023-05-07T00:39:08;8.60;;;7.28;;
21754;SDS011;11039;50.028;19.938;2023-05-07T00:41:34;7.82;;;7.03;;
21754;SDS011;11039;50.028;19.938;2023-05-07T00:44:00;7.28;;;6.57;;
21754;SDS011;11039;50.028;19.938;2023-05-07T00:46:27;7.78;;;6.97;;
21754;SDS011;11039;50.028;19.938;2023-05-07T00:48:54;7.88;;;6.85;;
21754;SDS011;11039;50.028;19.938;2023-05-07T00:51:20;8.10;;;7.30;;
21754;SDS011;11039;50.028;19.938;2023-05-07T00:53:46;7.20;;;6.50;;
21754;SDS011;11039;50.028;19.938;2023-05-07T00:56:12;8.32;;;7.10;;
21754;SDS011;11039;50.028;19.938;2023-05-07T00:58:38;7.63;;;6.80;;
21754;SDS011;11039;50.028;19.938;2023-05-07T01:01:05;7.75;;;6.40;;
21754;SDS011;11039;50.028;19.938;2023-05-07T01:03:32;8.82;;;7.18;;
21754;SDS011;11039;50.028;19.938;2023-05-07T01:05:58;7.50;;;6.72;;
21754;SDS011;11039;50.028;19.938;2023-05-07T01:08:25;7.97;;;7.03;;
21754;SDS011;11039;50.028;19.938;2023-05-07T01:10:53;6.97;;;6.28;;
21754;SDS011;11039;50.028;19.938;2023-05-07T01:13:20;7.45;;;6.72;;
21754;SDS011;11039;50.028;19.938;2023-05-07T01:15:46;7.97;;;6.85;;
21754;SDS011;11039;50.028;19.938;2023-05-07T01:18:12;7.47;;;6.57;;
21754;SDS011;11039;50.028;19.938;2023-05-07T01:20:39;7.30;;;6.50;;
21754;SDS011;11039;50.028;19.938;2023-05-07T01:23:05;6.85;;;6.15;;
21754;SDS011;11039;50.028;19.938;2023-05-07T01:25:32;7.55;;;6.25;;
21754;SDS011;11039;50.028;19.938;2023-05-07T01:27:58;7.03;;;6.30;;
21754;SDS011;11039;50.028;19.938;2023-05-07T01:30:26;7.20;;;6.50;;
21754;SDS011;11039;50.028;19.938;2023-05-07T01:35:22;7.15;;;6.38;;
21754;SDS011;11039;50.028;19.938;2023-05-07T01:37:50;7.35;;;6.65;;
21754;SDS011;11039;50.028;19.938;2023-05-07T01:40:16;7.25;;;6.45;;
21754;SDS011;11039;50.028;19.938;2023-05-07T01:42:43;7.13;;;6.43;;
21754;SDS011;11039;50.028;19.938;2023-05-07T01:45:09;7.03;;;6.32;;
21754;SDS011;11039;50.028;19.938;2023-05-07T01:47:38;6.97;;;6.28;;
21754;SDS011;11039;50.028;19.938;2023-05-07T01:50:07;7.68;;;6.88;;
21754;SDS011;11039;50.028;19.938;2023-05-07T01:52:36;6.82;;;6.13;;
21754;SDS011;11039;50.028;19.938;2023-05-07T01:55:02;7.18;;;6.47;;
21754;SDS011;11039;50.028;19.938;2023-05-07T01:57:28;7.03;;;6.32;;
21754;SDS011;11039;50.028;19.938;2023-05-07T01:59:54;6.90;;;6.07;;
21754;SDS011;11039;50.028;19.938;2023-05-07T02:02:20;7.20;;;6.13;;
21754;SDS011;11039;50.028;19.938;2023-05-07T02:04:46;6.53;;;5.88;;
21754;SDS011;11039;50.028;19.938;2023-05-07T02:07:12;6.80;;;6.10;;
21754;SDS011;11039;50.028;19.938;2023-05-07T02:09:38;7.47;;;6.72;;
21754;SDS011;11039;50.028;19.938;2023-05-07T02:12:04;7.13;;;6.43;;
21754;SDS011;11039;50.028;19.938;2023-05-07T02:14:30;6.80;;;6.10;;
21754;SDS011;11039;50.028;19.938;2023-05-07T02:16:56;7.15;;;6.45;;
21754;SDS011;11039;50.028;19.938;2023-05-07T02:19:22;7.20;;;6.47;;
21754;SDS011;11039;50.028;19.938;2023-05-07T02:21:48;6.85;;;6.15;;
21754;SDS011;11039;50.028;19.938;2023-05-07T02:24:15;6.55;;;5.75;;
21754;SDS011;11039;50.028;19.938;2023-05-07T02:26:41;6.38;;;5.78;;
21754;SDS011;11039;50.028;19.938;2023-05-07T02:29:07;6.65;;;5.95;;
21754;SDS011;11039;50.028;19.938;2023-05-07T02:31:33;6.50;;;5.90;;
21754;SDS011;11039;50.028;19.938;2023-05-07T02:34:00;6.85;;;6.15;;
21754;SDS011;11039;50.028;19.938;2023-05-07T02:36:26;6.28;;;5.65;;
21754;SDS011;11039;50.028;19.938;2023-05-07T02:38:52;6.38;;;5.43;;
21754;SDS011;11039;50.028;19.938;2023-05-07T02:41:18;6.20;;;5.60;;
21754;SDS011;11039;50.028;19.938;2023-05-07T02:43:45;6.30;;;5.70;;
21754;SDS011;11039;50.028;19.938;2023-05-07T02:46:11;6.63;;;5.40;;
21754;SDS011;11039;50.028;19.938;2023-05-07T02:48:37;7.75;;;5.78;;
21754;SDS011;11039;50.028;19.938;2023-05-07T02:51:03;6.40;;;5.80;;
21754;SDS011;11039;50.028;19.938;2023-05-07T02:53:30;6.93;;;5.85;;
21754;SDS011;11039;50.028;19.938;2023-05-07T02:55:57;5.90;;;5.30;;
21754;SDS011;11039;50.028;19.938;2023-05-07T02:58:23;6.47;;;5.57;;
21754;SDS011;11039;50.028;19.938;2023-05-07T03:00:49;6.78;;;5.82;;
21754;SDS011;11039;50.028;19.938;2023-05-07T03:03:16;6.55;;;5.40;;
21754;SDS011;11039;50.028;19.938;2023-05-07T03:05:42;6.25;;;5.32;;
21754;SDS011;11039;50.028;19.938;2023-05-07T03:08:08;6.70;;;5.45;;
21754;SDS011;11039;50.028;19.938;2023-05-07T03:10:34;5.70;;;5.10;;
21754;SDS011;11039;50.028;19.938;2023-05-07T03:13:01;5.75;;;5.15;;
21754;SDS011;11039;50.028;19.938;2023-05-07T03:15:27;6.40;;;5.43;;
21754;SDS011;11039;50.028;19.938;2023-05-07T03:17:53;6.30;;;5.70;;
21754;SDS011;11039;50.028;19.938;2023-05-07T03:20:19;6.13;;;5.50;;
21754;SDS011;11039;50.028;19.938;2023-05-07T03:22:45;6.45;;;5.32;;
21754;SDS011;11039;50.028;19.938;2023-05-07T03:25:11;5.85;;;5.25;;
21754;SDS011;11039;50.028;19.938;2023-05-07T03:27:39;5.55;;;4.70;;
21754;SDS011;11039;50.028;19.938;2023-05-07T03:30:07;6.03;;;5.50;;
21754;SDS011;11039;50.028;19.938;2023-05-07T03:32:33;6.00;;;5.22;;
21754;SDS011;11039;50.028;19.938;2023-05-07T03:35:00;5.72;;;5.13;;
21754;SDS011;11039;50.028;19.938;2023-05-07T03:37:26;6.15;;;5.53;;
21754;SDS011;11039;50.028;19.938;2023-05-07T03:39:52;5.93;;;4.80;;
21754;SDS011;11039;50.028;19.938;2023-05-07T03:42:18;5.70;;;5.00;;
21754;SDS011;11039;50.028;19.938;2023-05-07T03:44:44;5.63;;;4.85;;
21754;SDS011;11039;50.028;19.938;2023-05-07T03:47:10;5.40;;;4.90;;
21754;SDS011;11039;50.028;19.938;2023-05-07T03:49:38;5.75;;;5.05;;
21754;SDS011;11039;50.028;19.938;2023-05-07T03:52:04;6.00;;;5.40;;
21754;SDS011;11039;50.028;19.938;2023-05-07T03:54:31;5.45;;;4.75;;
21754;SDS011;11039;50.028;19.938;2023-05-07T03:56:57;5.53;;;5.00;;
21754;SDS011;11039;50.028;19.938;2023-05-07T03:59:23;6.95;;;4.85;;
21754;SDS011;11039;50.028;19.938;2023-05-07T04:01:49;5.50;;;4.80;;
21754;SDS011;11039;50.028;19.938;2023-05-07T04:04:15;6.30;;;5.05;;
21754;SDS011;11039;50.028;19.938;2023-05-07T04:06:41;4.97;;;4.47;;
21754;SDS011;11039;50.028;19.938;2023-05-07T04:09:07;4.82;;;4.32;;
21754;SDS011;11039;50.028;19.938;2023-05-07T04:11:34;4.95;;;4.45;;
21754;SDS011;11039;50.028;19.938;2023-05-07T04:14:00;5.30;;;4.75;;
21754;SDS011;11039;50.028;19.938;2023-05-07T04:16:26;5.00;;;4.50;;
21754;SDS011;11039;50.028;19.938;2023-05-07T04:18:52;4.80;;;4.32;;
21754;SDS011;11039;50.028;19.938;2023-05-07T04:21:19;4.28;;;3.80;;
21754;SDS011;11039;50.028;19.938;2023-05-07T04:23:45;6.05;;;4.40;;
21754;SDS011;11039;50.028;19.938;2023-05-07T04:26:11;4.80;;;4.28;;
21754;SDS011;11039;50.028;19.938;2023-05-07T04:28:38;4.70;;;4.25;;
21754;SDS011;11039;50.028;19.938;2023-05-07T04:31:04;5.30;;;4.13;;
21754;SDS011;11039;50.028;19.938;2023-05-07T04:33:31;3.97;;;3.60;;
21754;SDS011;11039;50.028;19.938;2023-05-07T04:35:57;4.43;;;4.03;;
21754;SDS011;11039;50.028;19.938;2023-05-07T04:38:27;4.47;;;4.07;;
21754;SDS011;11039;50.028;19.938;2023-05-07T04:40:53;4.85;;;4.07;;
21754;SDS011;11039;50.028;19.938;2023-05-07T04:43:19;5.00;;;4.50;;
21754;SDS011;11039;50.028;19.938;2023-05-07T04:45:46;4.80;;;4.15;;
21754;SDS011;11039;50.028;19.938;2023-05-07T04:48:14;4.75;;;4.25;;
21754;SDS011;11039;50.028;19.938;2023-05-07T04:50:40;4.43;;;4.03;;
21754;SDS011;11039;50.028;19.938;2023-05-07T04:53:06;3.92;;;3.55;;
21754;SDS011;11039;50.028;19.938;2023-05-07T04:55:32;4.30;;;3.60;;
21754;SDS011;11039;50.028;19.938;2023-05-07T04:57:58;4.28;;;3.88;;
21754;SDS011;11039;50.028;19.938;2023-05-07T05:00:26;4.45;;;3.92;;
21754;SDS011;11039;50.028;19.938;2023-05-07T05:02:52;4.28;;;3.88;;
21754;SDS011;11039;50.028;19.938;2023-05-07T05:05:18;4.13;;;3.72;;
21754;SDS011;11039;50.028;19.938;2023-05-07T05:07:44;3.88;;;3.35;;
21754;SDS011;11039;50.028;19.938;2023-05-07T05:10:10;3.83;;;3.53;;
21754;SDS011;11039;50.028;19.938;2023-05-07T05:12:36;4.32;;;3.30;;
21754;SDS011;11039;50.028;19.938;2023-05-07T05:15:03;3.80;;;3.40;;
21754;SDS011;11039;50.028;19.938;2023-05-07T05:17:29;3.50;;;3.20;;
21754;SDS011;11039;50.028;19.938;2023-05-07T05:19:55;3.80;;;3.35;;
21754;SDS011;11039;50.028;19.938;2023-05-07T05:22:21;3.95;;;3.53;;
21754;SDS011;11039;50.028;19.938;2023-05-07T05:24:47;3.90;;;3.40;;
21754;SDS011;11039;50.028;19.938;2023-05-07T05:27:13;3.38;;;3.08;;
21754;SDS011;11039;50.028;19.938;2023-05-07T05:29:39;3.50;;;3.20;;
21754;SDS011;11039;50.028;19.938;2023-05-07T05:32:05;4.15;;;3.22;;
21754;SDS011;11039;50.028;19.938;2023-05-07T05:34:31;3.45;;;3.13;;
21754;SDS011;11039;50.028;19.938;2023-05-07T05:36:58;3.45;;;3.15;;
21754;SDS011;11039;50.028;19.938;2023-05-07T05:39:24;2.97;;;2.67;;
21754;SDS011;11039;50.028;19.938;2023-05-07T05:41:50;3.20;;;2.90;;
21754;SDS011;11039;50.028;19.938;2023-05-07T05:44:16;3.50;;;2.88;;
21754;SDS011;11039;50.028;19.938;2023-05-07T05:46:42;3.17;;;2.88;;
21754;SDS011;11039;50.028;19.938;2023-05-07T05:49:08;3.05;;;2.75;;
21754;SDS011;11039;50.028;19.938;2023-05-07T05:51:34;3.00;;;2.70;;
21754;SDS011;11039;50.028;19.938;2023-05-07T05:54:00;2.90;;;2.53;;
21754;SDS011;11039;50.028;19.938;2023-05-07T05:56:26;3.08;;;2.75;;
21754;SDS011;11039;50.028;19.938;2023-05-07T05:58:53;3.17;;;2.88;;
21754;SDS011;11039;50.028;19.938;2023-05-07T06:01:19;3.47;;;3.17;;
21754;SDS011;11039;50.028;19.938;2023-05-07T06:03:45;2.95;;;2.67;;
21754;SDS011;11039;50.028;19.938;2023-05-07T06:06:11;2.58;;;2.28;;
21754;SDS011;11039;50.028;19.938;2023-05-07T06:08:37;3.38;;;3.08;;
21754;SDS011;11039;50.028;19.938;2023-05-07T06:11:03;2.50;;;2.30;;
21754;SDS011;11039;50.028;19.938;2023-05-07T06:13:30;2.72;;;2.53;;
21754;SDS011;11039;50.028;19.938;2023-05-07T06:15:56;2.70;;;2.50;;
21754;SDS011;11039;50.028;19.938;2023-05-07T06:18:22;2.80;;;2.60;;
21754;SDS011;11039;50.028;19.938;2023-05-07T06:20:48;3.05;;;2.75;;
21754;SDS011;11039;50.028;19.938;2023-05-07T06:23:14;2.75;;;2.55;;
21754;SDS011;11039;50.028;19.938;2023-05-07T06:25:40;2.63;;;2.42;;
21754;SDS011;11039;50.028;19.938;2023-05-07T06:28:06;2.55;;;2.35;;
21754;SDS011;11039;50.028;19.938;2023-05-07T06:30:34;2.60;;;2.33;;
21754;SDS011;11039;50.028;19.938;2023-05-07T06:33:00;2.60;;;2.35;;
21754;SDS011;11039;50.028;19.938;2023-05-07T06:35:26;2.63;;;2.42;;
21754;SDS011;11039;50.028;19.938;2023-05-07T06:37:52;2.30;;;2.10;;
21754;SDS011;11039;50.028;19.938;2023-05-07T06:40:18;2.80;;;2.30;;
21754;SDS011;11039;50.028;19.938;2023-05-07T06:42:44;2.60;;;2.40;;
21754;SDS011;11039;50.028;19.938;2023-05-07T06:47:30;3.30;;;2.25;;
21754;SDS011;11039;50.028;19.938;2023-05-07T06:49:56;2.53;;;2.30;;
21754;SDS011;11039;50.028;19.938;2023-05-07T06:52:22;1.98;;;1.85;;
21754;SDS011;11039;50.028;19.938;2023-05-07T06:54:48;2.30;;;2.10;;
21754;SDS011;11039;50.028;19.938;2023-05-07T06:57:14;2.28;;;2.05;;
21754;SDS011;11039;50.028;19.938;2023-05-07T06:59:40;2.97;;;2.38;;
21754;SDS011;11039;50.028;19.938;2023-05-07T07:02:06;2.40;;;2.20;;
21754;SDS011;11039;50.028;19.938;2023-05-07T07:04:33;3.05;;;2.20;;
21754;SDS011;11039;50.028;19.938;2023-05-07T07:06:59;2.72;;;2.00;;
21754;SDS011;11039;50.028;19.938;2023-05-07T07:09:25;2.33;;;2.05;;
21754;SDS011;11039;50.028;19.938;2023-05-07T07:11:52;2.20;;;1.90;;
21754;SDS011;11039;50.028;19.938;2023-05-07T07:14:17;3.47;;;1.98;;
21754;SDS011;11039;50.028;19.938;2023-05-07T07:16:44;2.00;;;1.80;;
21754;SDS011;11039;50.028;19.938;2023-05-07T07:19:11;2.13;;;1.90;;
21754;SDS011;11039;50.028;19.938;2023-05-07T07:21:37;2.17;;;1.90;;
21754;SDS011;11039;50.028;19.938;2023-05-07T07:24:03;7.07;;;2.00;;
21754;SDS011;11039;50.028;19.938;2023-05-07T07:26:29;6.95;;;1.80;;
21754;SDS011;11039;50.028;19.938;2023-05-07T07:28:56;6.38;;;2.20;;
21754;SDS011;11039;50.028;19.938;2023-05-07T07:31:22;1.75;;;1.60;;
21754;SDS011;11039;50.028;19.938;2023-05-07T07:33:48;2.35;;;2.15;;
21754;SDS011;11039;50.028;19.938;2023-05-07T07:36:15;2.10;;;1.75;;
21754;SDS011;11039;50.028;19.938;2023-05-07T07:38:41;3.83;;;1.70;;
21754;SDS011;11039;50.028;19.938;2023-05-07T07:41:07;1.88;;;1.70;;
21754;SDS011;11039;50.028;19.938;2023-05-07T07:43:34;2.95;;;1.80;;
21754;SDS011;11039;50.028;19.938;2023-05-07T07:46:00;2.92;;;1.67;;
21754;SDS011;11039;50.028;19.938;2023-05-07T07:48:26;2.50;;;1.98;;
21754;SDS011;11039;50.028;19.938;2023-05-07T07:50:52;3.53;;;1.90;;
21754;SDS011;11039;50.028;19.938;2023-05-07T07:53:18;2.08;;;1.88;;
21754;SDS011;11039;50.028;19.938;2023-05-07T07:55:45;2.00;;;1.80;;
21754;SDS011;11039;50.028;19.938;2023-05-07T07:58:11;2.08;;;1.70;;
21754;SDS011;11039;50.028;19.938;2023-05-07T08:00:37;1.92;;;1.63;;
21754;SDS011;11039;50.028;19.938;2023-05-07T08:03:03;1.92;;;1.67;;
21754;SDS011;11039;50.028;19.938;2023-05-07T08:05:30;1.90;;;1.60;;
21754;SDS011;11039;50.028;19.938;2023-05-07T08:07:56;2.05;;;1.80;;
21754;SDS011;11039;50.028;19.938;2023-05-07T08:10:22;1.98;;;1.50;;
21754;SDS011;11039;50.028;19.938;2023-05-07T08:12:48;2.53;;;2.10;;
21754;SDS011;11039;50.028;19.938;2023-05-07T08:15:14;2.38;;;2.00;;
21754;SDS011;11039;50.028;19.938;2023-05-07T08:17:40;3.58;;;1.83;;
21754;SDS011;11039;50.028;19.938;2023-05-07T08:20:07;2.55;;;1.88;;
21754;SDS011;11039;50.028;19.938;2023-05-07T08:22:34;4.20;;;1.90;;
21754;SDS011;11039;50.028;19.938;2023-05-07T08:25:00;2.30;;;2.05;;
21754;SDS011;11039;50.028;19.938;2023-05-07T08:27:26;2.50;;;2.00;;
21754;SDS011;11039;50.028;19.938;2023-05-07T08:29:52;3.58;;;2.10;;
21754;SDS011;11039;50.028;19.938;2023-05-07T08:32:18;2.28;;;2.08;;
21754;SDS011;11039;50.028;19.938;2023-05-07T08:34:44;3.63;;;2.13;;
21754;SDS011;11039;50.028;19.938;2023-05-07T08:37:11;4.07;;;2.22;;
21754;SDS011;11039;50.028;19.938;2023-05-07T08:39:37;3.45;;;2.00;;
21754;SDS011;11039;50.028;19.938;2023-05-07T08:42:03;3.30;;;2.50;;
21754;SDS011;11039;50.028;19.938;2023-05-07T08:44:32;3.25;;;2.15;;
21754;SDS011;11039;50.028;19.938;2023-05-07T08:46:59;4.82;;;2.22;;
21754;SDS011;11039;50.028;19.938;2023-05-07T08:49:27;2.78;;;2.53;;
21754;SDS011;11039;50.028;19.938;2023-05-07T08:51:53;6.03;;;2.50;;
21754;SDS011;11039;50.028;19.938;2023-05-07T08:54:20;3.35;;;2.55;;
21754;SDS011;11039;50.028;19.938;2023-05-07T08:56:46;3.30;;;2.40;;
21754;SDS011;11039;50.028;19.938;2023-05-07T08:59:12;2.53;;;2.30;;
21754;SDS011;11039;50.028;19.938;2023-05-07T09:01:38;6.32;;;2.38;;
21754;SDS011;11039;50.028;19.938;2023-05-07T09:04:05;5.82;;;2.60;;
21754;SDS011;11039;50.028;19.938;2023-05-07T09:06:32;5.40;;;2.80;;
21754;SDS011;11039;50.028;19.938;2023-05-07T09:08:58;4.22;;;2.60;;
21754;SDS011;11039;50.028;19.938;2023-05-07T09:11:26;4.18;;;2.72;;
21754;SDS011;11039;50.028;19.938;2023-05-07T09:13:55;4.15;;;2.88;;
21754;SDS011;11039;50.028;19.938;2023-05-07T09:16:23;4.65;;;2.75;;
21754;SDS011;11039;50.028;19.938;2023-05-07T09:18:53;2.78;;;2.53;;
21754;SDS011;11039;50.028;19.938;2023-05-07T09:21:19;3.55;;;2.42;;
21754;SDS011;11039;50.028;19.938;2023-05-07T09:23:47;3.70;;;2.88;;
21754;SDS011;11039;50.028;19.938;2023-05-07T09:26:14;3.10;;;2.50;;
21754;SDS011;11039;50.028;19.938;2023-05-07T09:28:40;4.38;;;3.50;;
21754;SDS011;11039;50.028;19.938;2023-05-07T09:31:07;6.05;;;3.25;;
21754;SDS011;11039;50.028;19.938;2023-05-07T09:33:33;4.95;;;3.40;;
21754;SDS011;11039;50.028;19.938;2023-05-07T09:36:03;5.75;;;3.38;;
21754;SDS011;11039;50.028;19.938;2023-05-07T09:38:30;6.45;;;3.33;;
21754;SDS011;11039;50.028;19.938;2023-05-07T09:41:09;9.18;;;3.67;;
21754;SDS011;11039;50.028;19.938;2023-05-07T09:43:35;10.30;;;4.10;;
21754;SDS011;11039;50.028;19.938;2023-05-07T09:46:03;5.88;;;3.63;;
21754;SDS011;11039;50.028;19.938;2023-05-07T09:48:29;8.48;;;3.50;;
21754;SDS011;11039;50.028;19.938;2023-05-07T09:50:55;6.88;;;3.53;;
21754;SDS011;11039;50.028;19.938;2023-05-07T09:53:23;8.48;;;3.40;;
21754;SDS011;11039;50.028;19.938;2023-05-07T09:55:50;6.78;;;3.50;;
21754;SDS011;11039;50.028;19.938;2023-05-07T09:58:16;6.95;;;3.40;;
21754;SDS011;11039;50.028;19.938;2023-05-07T10:00:44;6.28;;;3.72;;
21754;SDS011;11039;50.028;19.938;2023-05-07T10:03:11;5.90;;;3.40;;
21754;SDS011;11039;50.028;19.938;2023-05-07T10:05:39;8.73;;;3.53;;
21754;SDS011;11039;50.028;19.938;2023-05-07T10:08:05;10.95;;;3.50;;
21754;SDS011;11039;50.028;19.938;2023-05-07T10:10:32;8.18;;;3.75;;
21754;SDS011;11039;50.028;19.938;2023-05-07T10:12:59;7.70;;;3.33;;
21754;SDS011;11039;50.028;19.938;2023-05-07T10:15:26;7.10;;;3.20;;
21754;SDS011;11039;50.028;19.938;2023-05-07T10:17:53;10.35;;;3.53;;
21754;SDS011;11039;50.028;19.938;2023-05-07T10:20:20;10.25;;;3.70;;
21754;SDS011;11039;50.028;19.938;2023-05-07T10:22:47;5.82;;;3.17;;
21754;SDS011;11039;50.028;19.938;2023-05-07T10:25:25;9.48;;;3.47;;
21754;SDS011;11039;50.028;19.938;2023-05-07T10:27:54;7.78;;;3.17;;
21754;SDS011;11039;50.028;19.938;2023-05-07T10:33:06;5.90;;;3.20;;
21754;SDS011;11039;50.028;19.938;2023-05-07T10:35:40;6.53;;;3.30;;
21754;SDS011;11039;50.028;19.938;2023-05-07T10:38:08;4.72;;;2.95;;
21754;SDS011;11039;50.028;19.938;2023-05-07T10:40:34;5.32;;;3.15;;
21754;SDS011;11039;50.028;19.938;2023-05-07T10:43:02;5.30;;;3.40;;
21754;SDS011;11039;50.028;19.938;2023-05-07T10:45:30;5.38;;;3.13;;
21754;SDS011;11039;50.028;19.938;2023-05-07T10:50:35;4.50;;;3.00;;
21754;SDS011;11039;50.028;19.938;2023-05-07T10:55:46;4.63;;;2.75;;
21754;SDS011;11039;50.028;19.938;2023-05-07T11:00:48;4.78;;;2.80;;
21754;SDS011;11039;50.028;19.938;2023-05-07T11:03:14;5.40;;;2.58;;
21754;SDS011;11039;50.028;19.938;2023-05-07T11:05:41;5.65;;;2.60;;
21754;SDS011;11039;50.028;19.938;2023-05-07T11:08:08;7.18;;;2.60;;
21754;SDS011;11039;50.028;19.938;2023-05-07T11:10:56;4.35;;;2.80;;
21754;SDS011;11039;50.028;19.938;2023-05-07T11:16:23;3.95;;;2.70;;
21754;SDS011;11039;50.028;19.938;2023-05-07T11:18:55;4.03;;;2.70;;
21754;SDS011;11039;50.028;19.938;2023-05-07T11:21:40;5.25;;;2.88;;
21754;SDS011;11039;50.028;19.938;2023-05-07T11:24:07;4.30;;;2.80;;
21754;SDS011;11039;50.028;19.938;2023-05-07T11:26:46;3.72;;;2.50;;
21754;SDS011;11039;50.028;19.938;2023-05-07T11:29:13;5.22;;;2.75;;
21754;SDS011;11039;50.028;19.938;2023-05-07T11:31:39;4.05;;;2.55;;
21754;SDS011;11039;50.028;19.938;2023-05-07T11:34:05;3.88;;;2.55;;
21754;SDS011;11039;50.028;19.938;2023-05-07T11:36:32;5.75;;;2.80;;
21754;SDS011;11039;50.028;19.938;2023-05-07T11:38:58;4.00;;;2.45;;
21754;SDS011;11039;50.028;19.938;2023-05-07T11:41:34;3.50;;;2.53;;
21754;SDS011;11039;50.028;19.938;2023-05-07T11:44:01;4.35;;;2.50;;
21754;SDS011;11039;50.028;19.938;2023-05-07T11:46:27;4.00;;;2.50;;
21754;SDS011;11039;50.028;19.938;2023-05-07T11:48:54;3.67;;;2.33;;
21754;SDS011;11039;50.028;19.938;2023-05-07T11:51:21;5.97;;;2.60;;
21754;SDS011;11039;50.028;19.938;2023-05-07T11:53:48;6.28;;;2.80;;
21754;SDS011;11039;50.028;19.938;2023-05-07T11:56:15;9.15;;;3.20;;
21754;SDS011;11039;50.028;19.938;2023-05-07T11:58:42;10.23;;;2.95;;
21754;SDS011;11039;50.028;19.938;2023-05-07T12:01:09;9.15;;;3.25;;
21754;SDS011;11039;50.028;19.938;2023-05-07T12:03:35;8.95;;;3.20;;
21754;SDS011;11039;50.028;19.938;2023-05-07T12:06:05;9.20;;;3.33;;
21754;SDS011;11039;50.028;19.938;2023-05-07T12:08:32;6.25;;;2.85;;
21754;SDS011;11039;50.028;19.938;2023-05-07T12:10:58;6.55;;;2.75;;
21754;SDS011;11039;50.028;19.938;2023-05-07T12:13:24;5.35;;;2.45;;
21754;SDS011;11039;50.028;19.938;2023-05-07T12:15:51;4.80;;;2.47;;
21754;SDS011;11039;50.028;19.938;2023-05-07T12:20:36;5.32;;;2.15;;
21754;SDS011;11039;50.028;19.938;2023-05-07T12:23:02;3.63;;;2.33;;
21754;SDS011;11039;50.028;19.938;2023-05-07T12:25:31;6.05;;;2.50;;
21754;SDS011;11039;50.028;19.938;2023-05-07T12:27:59;4.80;;;2.50;;
21754;SDS011;11039;50.028;19.938;2023-05-07T12:30:25;4.03;;;2.20;;
21754;SDS011;11039;50.028;19.938;2023-05-07T12:32:55;7.10;;;2.65;;
21754;SDS011;11039;50.028;19.938;2023-05-07T12:35:30;5.70;;;2.38;;
21754;SDS011;11039;50.028;19.938;2023-05-07T12:37:58;7.60;;;2.88;;
21754;SDS011;11039;50.028;19.938;2023-05-07T12:40:34;8.02;;;2.70;;
21754;SDS011;11039;50.028;19.938;2023-05-07T12:43:00;6.35;;;2.42;;
21754;SDS011;11039;50.028;19.938;2023-05-07T12:45:26;5.60;;;2.50;;
21754;SDS011;11039;50.028;19.938;2023-05-07T12:47:53;4.47;;;2.45;;
21754;SDS011;11039;50.028;19.938;2023-05-07T12:50:19;4.82;;;2.40;;
21754;SDS011;11039;50.028;19.938;2023-05-07T12:52:47;9.48;;;2.70;;
21754;SDS011;11039;50.028;19.938;2023-05-07T12:55:13;6.03;;;2.00;;
21754;SDS011;11039;50.028;19.938;2023-05-07T12:57:45;6.53;;;2.40;;
21754;SDS011;11039;50.028;19.938;2023-05-07T13:00:13;5.70;;;2.35;;
21754;SDS011;11039;50.028;19.938;2023-05-07T13:02:40;6.10;;;2.60;;
21754;SDS011;11039;50.028;19.938;2023-05-07T13:05:06;6.10;;;2.28;;
21754;SDS011;11039;50.028;19.938;2023-05-07T13:07:33;6.30;;;2.40;;
21754;SDS011;11039;50.028;19.938;2023-05-07T13:09:59;8.77;;;2.40;;
21754;SDS011;11039;50.028;19.938;2023-05-07T13:12:25;6.80;;;2.67;;
21754;SDS011;11039;50.028;19.938;2023-05-07T13:14:51;5.88;;;2.55;;
21754;SDS011;11039;50.028;19.938;2023-05-07T13:17:17;6.65;;;2.58;;
21754;SDS011;11039;50.028;19.938;2023-05-07T13:19:43;6.00;;;2.50;;
21754;SDS011;11039;50.028;19.938;2023-05-07T13:22:09;6.07;;;2.20;;
21754;SDS011;11039;50.028;19.938;2023-05-07T13:24:35;4.20;;;2.40;;
21754;SDS011;11039;50.028;19.938;2023-05-07T13:27:02;5.57;;;2.15;;
21754;SDS011;11039;50.028;19.938;2023-05-07T13:29:28;5.97;;;2.25;;
21754;SDS011;11039;50.028;19.938;2023-05-07T13:31:58;4.20;;;2.10;;
21754;SDS011;11039;50.028;19.938;2023-05-07T13:34:24;5.72;;;2.40;;
21754;SDS011;11039;50.028;19.938;2023-05-07T13:36:50;6.25;;;2.30;;
21754;SDS011;11039;50.028;19.938;2023-05-07T13:39:17;4.40;;;2.17;;
21754;SDS011;11039;50.028;19.938;2023-05-07T13:41:43;5.63;;;2.47;;
21754;SDS011;11039;50.028;19.938;2023-05-07T13:44:09;4.25;;;2.10;;
21754;SDS011;11039;50.028;19.938;2023-05-07T13:46:35;4.95;;;2.05;;
21754;SDS011;11039;50.028;19.938;2023-05-07T13:49:01;4.75;;;2.28;;
21754;SDS011;11039;50.028;19.938;2023-05-07T13:51:27;5.00;;;2.40;;
21754;SDS011;11039;50.028;19.938;2023-05-07T13:53:53;5.57;;;1.95;;
21754;SDS011;11039;50.028;19.938;2023-05-07T13:56:19;3.97;;;1.88;;
21754;SDS011;11039;50.028;19.938;2023-05-07T13:58:46;5.22;;;2.05;;
21754;SDS011;11039;50.028;19.938;2023-05-07T14:01:12;3.63;;;2.03;;
21754;SDS011;11039;50.028;19.938;2023-05-07T14:03:38;4.00;;;2.08;;
21754;SDS011;11039;50.028;19.938;2023-05-07T14:06:05;4.15;;;2.35;;
21754;SDS011;11039;50.028;19.938;2023-05-07T14:08:31;3.20;;;2.10;;
21754;SDS011;11039;50.028;19.938;2023-05-07T14:10:57;5.40;;;1.85;;
21754;SDS011;11039;50.028;19.938;2023-05-07T14:13:23;4.55;;;1.95;;
21754;SDS011;11039;50.028;19.938;2023-05-07T14:15:50;4.72;;;1.90;;
21754;SDS011;11039;50.028;19.938;2023-05-07T14:18:16;5.15;;;2.13;;
21754;SDS011;11039;50.028;19.938;2023-05-07T14:20:42;5.68;;;2.63;;
21754;SDS011;11039;50.028;19.938;2023-05-07T14:23:10;7.82;;;2.10;;
21754;SDS011;11039;50.028;19.938;2023-05-07T14:25:36;4.82;;;2.40;;
21754;SDS011;11039;50.028;19.938;2023-05-07T14:28:03;4.85;;;2.30;;
21754;SDS011;11039;50.028;19.938;2023-05-07T14:30:29;3.15;;;2.20;;
21754;SDS011;11039;50.028;19.938;2023-05-07T14:32:55;3.80;;;1.90;;
21754;SDS011;11039;50.028;19.938;2023-05-07T14:35:21;4.63;;;2.40;;
21754;SDS011;11039;50.028;19.938;2023-05-07T14:37:47;3.85;;;2.05;;
21754;SDS011;11039;50.028;19.938;2023-05-07T14:40:13;3.95;;;2.30;;
21754;SDS011;11039;50.028;19.938;2023-05-07T14:42:39;3.80;;;1.77;;
21754;SDS011;11039;50.028;19.938;2023-05-07T14:45:06;4.65;;;1.90;;
21754;SDS011;11039;50.028;19.938;2023-05-07T14:47:32;3.97;;;1.90;;
21754;SDS011;11039;50.028;19.938;2023-05-07T14:49:58;4.13;;;2.25;;